Fairbanks, AK

8:04 PM AKST on February 10, 2016 (GMT -0900)
Nenana Municipal | | Change Station
CLOSE
Current Station
Airport
Location: Nenana,
Elevation: 361 ft
Nearby Weather Stations

Elev 361 ft 64.55 °N, 149.07 °W | Updated 11 minutes ago

Partly Cloudy
Partly Cloudy
6 °F
Feels Like -6 °F
N
7
Wind Variable Wind from NW

Today
High -- | Low -- °F
--% Chance of Precip.
Yesterday
High -- | Low -- °F
Precip. -- in
Pressure 29.72 in
Visibility 10.0 miles
Clouds Few 3500 ft
Windchill -6 °F
Dew Point -2 °F
Humidity 69%
Rainfall 0.00 in
Snow Depth Not available.
9:10 AM 5:08 PM
Waxing Crescent, 9% visible
METAR PANN 110453Z AUTO 31006KT 10SM FEW035 M14/M19 A2967 RMK AO2 SLP062 T11441189 TSNO
Pressure 29.72 in
Visibility 10.0 miles
Clouds Few 3500 ft
Windchill -6 °F
Dew Point -2 °F
Humidity 69%
Rainfall 0.00 in
Snow Depth Not available.
9:10 AM 5:08 PM
Waxing Crescent, 9% visible
METAR PANN 110453Z AUTO 31006KT 10SM FEW035 M14/M19 A2967 RMK AO2 SLP062 T11441189 TSNO

10-Day Weather Forecast

Almanac

Astronomy

Feb. 10, 2016 Rise Set
Actual Time
Civil Twilight
Nautical Twilight
Astronomical Twilight
Moon
Length of Visible Light
Length of Day
Tomorrow will be .
, % of the Moon is Illuminated

Today's Extremes

State Highs State Lows

Community

WunderPhotos

Upload Photos

1,892,016 photos uploaded!

WunderBlog® & News

Nearby

Air Quality

  Air Quality AQ Index Pollutant
Not available.

Snow Depth

Station Depth Elevation

Earthquake Activity

City Distance Mag. Time & Date
Minimum magnitude displayed is 2.5.

Coastal Water Temperatures

Place Temperature

Stations

Nearby Weather Stations

Station Location Temp. Windchill Dew Point Humidity Wind Precip. Elev Updated Type
                   

Watches & Warnings

There are currently no watches in effect.